Bel Alton, MD

2:30 AM EST on December 28, 2014 (GMT -0500)
Bel Alton_Newtown, MD | Change Station
CLOSE
Current Station
Personal Weather Station
Location: La Plata, MD
Elevation: 177 ft
Nearby Weather Stations

Elev 177 ft 38.49 °N, 76.95 °W | Updated 40 minutes ago

Overcast
Overcast
47.3 °F
Feels Like 47 °F
N
0.0
Wind Variable Wind from SSE
Gusts 0.0 mph

Today
High -- | Low -- °F
--% Chance of Precip.
Yesterday
High -- | Low -- °F
Precip. -- in
7:24 AM 4:54 PM
Waxing Crescent, 45% visible
Pressure 30.04 in
Visibility 10.0 miles
Clouds Mostly Cloudy 8000 ft
Mostly Cloudy 12000 ft
Windchill 47 °F
Dew Point 40 °F
Humidity 75%
Rainfall 0.00 in
Snow Depth Not available.
UV 0 out of 12
Pollen .10 out of 12
Air Quality Not available.
Flu Activity Not available.
METAR KNYG 280656Z AUTO 21004KT 10SM BKN080 BKN120 07/03 A3003 RMK AO2 RAB14E26 SLP170 P0000 T00720033 $

More Conditions Fewer Conditions

Pressure 30.04 in
Visibility 10.0 miles
Clouds Mostly Cloudy 8000 ft
Mostly Cloudy 12000 ft
Windchill 47 °F
Dew Point 40 °F
Humidity 75%
Rainfall 0.00 in
Snow Depth Not available.
UV 0 out of 12
Pollen .10 out of 12
Air Quality Not available.
Flu Activity Not available.
METAR KNYG 280656Z AUTO 21004KT 10SM BKN080 BKN120 07/03 A3003 RMK AO2 RAB14E26 SLP170 P0000 T00720033 $

More Conditions Fewer Conditions

10-Day Weather Forecast

Almanac

Astronomy

Dec. 28, 2014 Rise Set
Actual Time
Civil Twilight
Nautical Twilight
Astronomical Twilight
Moon
Length of Visible Light
Length of Day
Tomorrow will be .
, % of the Moon is Illuminated

Today's Extremes

State Highs State Lows

Community

WunderPhotos

Upload Photos

1,781,210 photos uploaded!

WunderBlogs® & News

Nearby

Air Quality

  Air Quality AQ Index Pollutant
Not available.

Snow Depth

Station Depth Elevation

Earthquake Activity

City Distance Mag. Time & Date
Minimum magnitude displayed is 2.5.

Coastal Water Temperatures

Place Temperature

Nearby Weather Stations